الصفحة الرئيسية
METAR-TAF:

METAR-TAF

مطار :

شايان, وايومنغ, الولايات المتحدة

دائرة عرض: 41-09-28N, خط طول: 104-48-25W, ارتفاع: 1876 متر

مراقبة الطقس الحالي

تاريخ ووقت الإصدار 15 دقيقة قبل الساعة 21:53UTC
ريح 15 عقدة من الشمال الغربي تتزايد حتى 20 عقدة
درجة الحرارة 4°درجة مئوية
الرطوبة 41%
ضغط 1026 hPa
الرؤية: 16.1 كم
سماء صافية

METAR: KCYS 152153Z 31015G20KT 10SM CLR 04/M08 A3030 RMK AO2 SLP301 T00391083

زمن: 16:08 (22:08 UTC)

توقعات

تاريخ ووقت الإصدار 4ساعات و 48 دقيقة قبل الساعة 17:20UTC
التوقعات صالحة من15 الساعة 18 UTC إلى 16 الساعة 18 UTC
ريح 11 عقدة من الغرب/الشمال الغربي تتزايد حتى 17 عقدة
الرؤية: 10 كم
سماء صافية
من 15 الساعة 2200 UTC
ريح 8 عقدة من الغرب/الشمال الغربي
الرؤية: 10 كم
غيوم قليلة على ارتفاع 10000 قدم

TAF: KCYS 151720Z 1518/1618 29011G17KT P6SM SKC FM152200 30008KT P6SM FEW100

أرصاد الطقس والتوقعات من أكثر من 4000 مطار (تقارير الطقس للمطار METAR والتنبؤ بالطقس بالمطارTAF).

المحطات المتاحة هي النقط الصفراء والحمراء على الخريطة.

حرك المؤشر فوق النقطة لمعرفة اسم المحطة.

ثم انقر لمعرفة أرصاد وتوقعات الطقس.

لتغيير الخارطة: اضغط على الأزرار الخضراء مع رمز الصليب الأسود للتكبير. على الزر الأخضر مع شرطة للتصغير، أو على الأسهم الخضراء للخرائط المجاورة.


METAR-TAF: